Time;durP1;ratioP1;P1;durP2;ratioP2;P2;SDS_P1;SDS_P2;PMS_P1;PMS_P2;Temp;Humidity;BMP_temperature;BMP_pressure;BME280_temperature;BME280_humidity;BME280_pressure;Samples;Min_cycle;Max_cycle;Signal;HPM_P1;HPM_P2
2022/07/17 00:00:22;;;;;;;6.95;3.42;;;;;;;;;;5015060;28;20493;-77
2022/07/17 00:02:48;;;;;;;6.60;4.05;;;;;;;;;;4997024;28;20038;-77
2022/07/17 00:05:15;;;;;;;6.13;3.47;;;;;;;;;;4997353;28;20073;-77
2022/07/17 00:07:46;;;;;;;6.03;3.58;;;;;;;;;;4997098;28;20045;-77
2022/07/17 00:10:12;;;;;;;8.50;3.60;;;;;;;;;;5015063;28;20049;-76
2022/07/17 00:12:38;;;;;;;5.63;3.40;;;;;;;;;;5014736;28;20197;-77
2022/07/17 00:15:05;;;;;;;5.88;3.30;;;;;;;;;;4996797;28;20153;-77
2022/07/17 00:17:31;;;;;;;6.40;3.33;;;;;;;;;;5014799;28;20042;-77
2022/07/17 00:19:57;;;;;;;5.55;3.22;;;;;;;;;;5014386;28;20405;-77
2022/07/17 00:22:23;;;;;;;5.13;3.08;;;;;;;;;;5014762;28;20042;-77
2022/07/17 00:24:49;;;;;;;7.85;3.22;;;;;;;;;;5014439;28;20563;-77
2022/07/17 00:27:15;;;;;;;4.05;3.10;;;;;;;;;;5014647;28;20128;-77
2022/07/17 00:29:41;;;;;;;7.07;2.92;;;;;;;;;;5014770;28;20044;-77
2022/07/17 00:32:07;;;;;;;6.53;2.90;;;;;;;;;;5014557;28;20042;-76
2022/07/17 00:34:33;;;;;;;4.28;2.80;;;;;;;;;;5014580;28;20046;-76
2022/07/17 00:36:59;;;;;;;5.53;3.15;;;;;;;;;;4997478;28;20045;-77
2022/07/17 00:39:25;;;;;;;5.63;3.15;;;;;;;;;;5014796;28;20370;-77
2022/07/17 00:41:54;;;;;;;6.05;2.83;;;;;;;;;;5014834;28;20393;-77
2022/07/17 00:44:20;;;;;;;4.97;2.90;;;;;;;;;;5014354;28;20481;-77
2022/07/17 00:46:46;;;;;;;6.38;2.97;;;;;;;;;;5025836;23;20465;-82
2022/07/17 00:49:12;;;;;;;5.93;3.08;;;;;;;;;;4995355;28;20058;-83
2022/07/17 00:51:38;;;;;;;5.90;2.80;;;;;;;;;;4995507;28;20099;-83
2022/07/17 00:54:05;;;;;;;6.82;3.17;;;;;;;;;;5012605;28;20099;-83
2022/07/17 00:56:32;;;;;;;4.50;2.80;;;;;;;;;;4995481;28;20057;-83
2022/07/17 00:58:58;;;;;;;5.78;3.22;;;;;;;;;;4995231;28;20044;-83
2022/07/17 01:01:24;;;;;;;10.40;3.03;;;;;;;;;;5013621;28;20042;-82
2022/07/17 01:03:50;;;;;;;6.47;3.13;;;;;;;;;;4995481;28;20391;-83
2022/07/17 01:06:16;;;;;;;5.32;2.80;;;;;;;;;;5012750;28;20141;-83
2022/07/17 01:08:42;;;;;;;5.60;3.05;;;;;;;;;;4978655;28;20046;-82
2022/07/17 01:11:09;;;;;;;7.72;3.00;;;;;;;;;;5012427;28;20112;-83
2022/07/17 01:13:35;;;;;;;7.32;2.80;;;;;;;;;;5012746;28;20073;-83
2022/07/17 01:16:01;;;;;;;5.10;3.00;;;;;;;;;;4994829;28;20053;-83
2022/07/17 01:18:27;;;;;;;9.38;3.40;;;;;;;;;;4994834;28;20038;-83
2022/07/17 01:20:53;;;;;;;5.55;2.70;;;;;;;;;;5012461;28;20314;-83
2022/07/17 01:23:19;;;;;;;5.80;3.03;;;;;;;;;;4994711;28;20049;-83
2022/07/17 01:25:46;;;;;;;5.72;3.20;;;;;;;;;;4978835;28;20172;-83
2022/07/17 01:28:12;;;;;;;5.55;3.05;;;;;;;;;;5012279;28;20113;-83
2022/07/17 01:30:45;;;;;;;5.70;3.13;;;;;;;;;;4994741;28;20108;-83
2022/07/17 01:33:11;;;;;;;4.45;2.83;;;;;;;;;;5012074;28;20050;-83
2022/07/17 01:35:37;;;;;;;6.20;2.85;;;;;;;;;;5012061;28;20415;-83
2022/07/17 01:38:03;;;;;;;4.47;2.72;;;;;;;;;;5011678;28;20049;-83
2022/07/17 01:40:29;;;;;;;7.25;3.20;;;;;;;;;;5012318;28;20048;-82
2022/07/17 01:42:55;;;;;;;7.20;3.28;;;;;;;;;;4994233;28;20469;-83
2022/07/17 01:45:21;;;;;;;9.07;3.53;;;;;;;;;;5011779;28;20594;-83
2022/07/17 01:47:48;;;;;;;8.98;3.15;;;;;;;;;;4994367;28;20518;-83
2022/07/17 01:50:15;;;;;;;5.95;3.03;;;;;;;;;;4994317;28;20550;-82
2022/07/17 01:52:42;;;;;;;5.30;3.10;;;;;;;;;;4993952;28;20088;-82
2022/07/17 01:55:09;;;;;;;5.57;2.83;;;;;;;;;;4977882;28;20084;-82
2022/07/17 01:57:36;;;;;;;6.03;3.13;;;;;;;;;;5011231;28;20038;-83
2022/07/17 02:00:04;;;;;;;4.63;3.00;;;;;;;;;;5011448;28;20045;-83
2022/07/17 02:02:30;;;;;;;4.97;3.00;;;;;;;;;;5011742;28;20045;-83
2022/07/17 02:04:56;;;;;;;8.13;3.28;;;;;;;;;;5011283;28;20114;-82
2022/07/17 02:07:22;;;;;;;4.70;2.90;;;;;;;;;;4994042;28;20061;-83
2022/07/17 02:09:48;;;;;;;4.28;2.97;;;;;;;;;;4993986;28;20049;-83
2022/07/17 02:12:14;;;;;;;6.18;3.00;;;;;;;;;;5011243;28;20519;-83
2022/07/17 02:14:41;;;;;;;6.95;3.20;;;;;;;;;;5011489;28;20150;-82
2022/07/17 02:17:07;;;;;;;6.50;3.53;;;;;;;;;;5011074;28;20042;-82
2022/07/17 02:19:33;;;;;;;7.00;3.65;;;;;;;;;;5011060;28;20057;-83
2022/07/17 02:21:59;;;;;;;6.13;3.08;;;;;;;;;;5011138;28;20057;-83
2022/07/17 02:24:25;;;;;;;8.43;3.20;;;;;;;;;;4977696;28;20041;-83
2022/07/17 02:26:51;;;;;;;8.98;3.38;;;;;;;;;;4993564;28;20088;-83
2022/07/17 02:29:17;;;;;;;8.00;3.53;;;;;;;;;;5010852;28;20186;-82
2022/07/17 02:31:43;;;;;;;5.75;3.45;;;;;;;;;;5011223;28;20053;-83
2022/07/17 02:34:09;;;;;;;6.97;3.40;;;;;;;;;;5010336;28;20073;-83
2022/07/17 02:36:35;;;;;;;7.18;3.15;;;;;;;;;;4977304;28;20049;-83
2022/07/17 02:39:02;;;;;;;7.90;3.60;;;;;;;;;;4993295;28;20042;-83
2022/07/17 02:41:28;;;;;;;6.93;3.25;;;;;;;;;;5011043;28;20467;-83
2022/07/17 02:43:54;;;;;;;4.97;3.20;;;;;;;;;;5010592;28;20399;-83
2022/07/17 02:46:20;;;;;;;8.02;3.90;;;;;;;;;;5010637;28;20505;-83
2022/07/17 02:48:46;;;;;;;7.03;3.20;;;;;;;;;;5010498;28;20050;-83
2022/07/17 02:51:12;;;;;;;5.50;3.30;;;;;;;;;;4993061;28;20046;-83
2022/07/17 02:53:38;;;;;;;9.55;3.42;;;;;;;;;;4993603;28;20252;-82
2022/07/17 02:56:05;;;;;;;6.82;3.30;;;;;;;;;;4992969;28;20100;-83
2022/07/17 02:58:31;;;;;;;7.68;3.60;;;;;;;;;;4992894;28;20053;-83
2022/07/17 03:00:57;;;;;;;5.85;3.40;;;;;;;;;;5010669;28;20045;-82
2022/07/17 03:03:23;;;;;;;9.32;4.00;;;;;;;;;;5010978;28;20560;-83
2022/07/17 03:05:49;;;;;;;7.07;3.95;;;;;;;;;;5010731;28;20430;-83
2022/07/17 03:08:15;;;;;;;6.95;3.80;;;;;;;;;;4992843;28;20054;-82
2022/07/17 03:10:41;;;;;;;8.68;3.97;;;;;;;;;;5010171;28;20053;-82
2022/07/17 03:13:07;;;;;;;6.68;3.35;;;;;;;;;;4976512;28;20128;-82
2022/07/17 03:15:33;;;;;;;6.15;3.40;;;;;;;;;;5010330;28;20406;-83
2022/07/17 03:17:59;;;;;;;6.18;3.70;;;;;;;;;;5010287;28;20049;-83
2022/07/17 03:20:25;;;;;;;4.80;3.45;;;;;;;;;;5011535;28;20045;-83
2022/07/17 03:22:51;;;;;;;4.95;3.35;;;;;;;;;;5011388;28;20038;-83
2022/07/17 03:25:18;;;;;;;7.60;3.70;;;;;;;;;;4993013;28;20099;-83
2022/07/17 03:27:44;;;;;;;6.03;3.33;;;;;;;;;;5010667;28;20529;-83
2022/07/17 03:30:10;;;;;;;6.20;3.45;;;;;;;;;;4992768;28;20045;-83
2022/07/17 03:32:36;;;;;;;7.47;3.67;;;;;;;;;;5010127;28;20042;-83
2022/07/17 03:35:02;;;;;;;6.45;3.83;;;;;;;;;;5010243;28;20089;-83
2022/07/17 03:37:28;;;;;;;7.90;4.13;;;;;;;;;;4992946;28;20045;-83
2022/07/17 03:39:55;;;;;;;6.78;3.55;;;;;;;;;;4976287;28;20058;-83
2022/07/17 03:42:21;;;;;;;7.15;4.10;;;;;;;;;;5010578;28;20053;-82
2022/07/17 03:44:47;;;;;;;9.88;4.45;;;;;;;;;;5010184;28;20046;-82
2022/07/17 03:47:13;;;;;;;8.27;4.38;;;;;;;;;;5009459;28;20053;-83
2022/07/17 03:49:39;;;;;;;5.97;3.97;;;;;;;;;;4976485;28;20081;-83
2022/07/17 03:52:05;;;;;;;9.38;3.90;;;;;;;;;;5010032;28;20081;-83
2022/07/17 03:54:31;;;;;;;6.75;3.90;;;;;;;;;;4992396;28;20042;-83
2022/07/17 03:56:58;;;;;;;6.65;3.95;;;;;;;;;;4976066;28;20116;-83
2022/07/17 03:59:24;;;;;;;6.75;3.83;;;;;;;;;;5010395;28;20072;-83
2022/07/17 04:01:50;;;;;;;7.63;3.50;;;;;;;;;;5009805;28;20080;-83
2022/07/17 04:04:16;;;;;;;4.95;3.72;;;;;;;;;;4992061;28;20046;-83
2022/07/17 04:06:42;;;;;;;6.78;3.65;;;;;;;;;;5010125;28;20050;-83
2022/07/17 04:09:08;;;;;;;6.60;3.72;;;;;;;;;;4991967;28;20367;-83
2022/07/17 04:11:34;;;;;;;6.63;3.75;;;;;;;;;;5010028;28;20041;-83
2022/07/17 04:14:00;;;;;;;7.65;3.95;;;;;;;;;;4992091;28;20057;-83
2022/07/17 04:16:27;;;;;;;8.25;3.70;;;;;;;;;;5009349;28;20050;-83
2022/07/17 04:18:53;;;;;;;7.90;3.92;;;;;;;;;;5009594;28;20128;-83
2022/07/17 04:21:19;;;;;;;7.45;4.30;;;;;;;;;;5010905;28;20141;-83
2022/07/17 04:23:45;;;;;;;7.20;4.15;;;;;;;;;;4995879;28;20061;-83
2022/07/17 04:26:11;;;;;;;8.63;3.95;;;;;;;;;;5013587;28;20042;-83
2022/07/17 04:28:37;;;;;;;7.03;3.88;;;;;;;;;;4996167;28;20084;-83
2022/07/17 04:31:04;;;;;;;7.97;4.20;;;;;;;;;;4995168;28;20414;-82
2022/07/17 04:33:30;;;;;;;6.97;4.20;;;;;;;;;;5013529;28;20046;-83
2022/07/17 04:35:56;;;;;;;9.02;4.22;;;;;;;;;;5012927;28;20422;-83
2022/07/17 04:38:22;;;;;;;7.95;3.60;;;;;;;;;;4995656;28;20056;-83
2022/07/17 04:40:48;;;;;;;8.25;3.90;;;;;;;;;;4995592;28;20121;-83
2022/07/17 04:43:14;;;;;;;7.85;3.55;;;;;;;;;;4995693;28;20045;-83
2022/07/17 04:45:40;;;;;;;6.20;3.58;;;;;;;;;;5012782;28;20093;-83
2022/07/17 04:48:06;;;;;;;6.35;3.20;;;;;;;;;;4978747;28;20053;-83
2022/07/17 04:50:33;;;;;;;7.13;3.03;;;;;;;;;;5013110;28;20477;-83
2022/07/17 04:53:00;;;;;;;5.30;3.28;;;;;;;;;;4995417;28;20053;-83
2022/07/17 04:55:26;;;;;;;6.03;3.10;;;;;;;;;;5013175;28;20096;-83
2022/07/17 04:57:53;;;;;;;6.97;3.10;;;;;;;;;;5012928;28;20136;-83
2022/07/17 05:00:20;;;;;;;7.05;3.22;;;;;;;;;;5012692;28;20124;-83
2022/07/17 05:02:46;;;;;;;7.70;3.40;;;;;;;;;;5012924;28;20046;-83
2022/07/17 05:05:12;;;;;;;6.32;3.10;;;;;;;;;;5012710;28;20133;-83
2022/07/17 05:07:38;;;;;;;5.18;2.83;;;;;;;;;;5012835;28;20057;-83
2022/07/17 05:10:04;;;;;;;7.10;3.10;;;;;;;;;;4994822;28;20550;-83
2022/07/17 05:12:30;;;;;;;6.40;2.92;;;;;;;;;;5012796;28;20487;-83
2022/07/17 05:14:56;;;;;;;7.57;3.22;;;;;;;;;;4994187;28;20053;-83
2022/07/17 05:17:22;;;;;;;6.57;2.78;;;;;;;;;;4994959;28;20070;-83
2022/07/17 05:19:48;;;;;;;7.63;3.15;;;;;;;;;;4995031;28;20041;-83
2022/07/17 05:22:15;;;;;;;5.72;2.97;;;;;;;;;;4994657;28;20049;-83
2022/07/17 05:24:41;;;;;;;6.30;2.90;;;;;;;;;;5012699;28;20050;-83
2022/07/17 05:27:07;;;;;;;6.07;3.28;;;;;;;;;;4994420;28;20053;-83
2022/07/17 05:29:33;;;;;;;7.03;3.33;;;;;;;;;;4994802;28;20069;-83
2022/07/17 05:31:59;;;;;;;5.72;3.10;;;;;;;;;;5011916;28;20046;-83
2022/07/17 05:34:25;;;;;;;3.88;3.00;;;;;;;;;;4994701;28;20053;-83
2022/07/17 05:36:51;;;;;;;8.27;3.08;;;;;;;;;;4994719;28;20034;-83
2022/07/17 05:39:17;;;;;;;7.88;3.05;;;;;;;;;;5012781;28;20077;-83
2022/07/17 05:41:43;;;;;;;4.57;2.65;;;;;;;;;;4995928;28;20100;-83
2022/07/17 05:44:09;;;;;;;6.07;3.13;;;;;;;;;;5011563;28;20046;-83
2022/07/17 05:46:35;;;;;;;6.30;3.08;;;;;;;;;;4994321;28;20049;-83
2022/07/17 05:49:01;;;;;;;4.43;2.58;;;;;;;;;;4994858;28;20124;-83
2022/07/17 05:51:30;;;;;;;5.05;2.90;;;;;;;;;;4995778;28;20129;-83
2022/07/17 05:53:56;;;;;;;5.13;2.78;;;;;;;;;;5011877;28;20130;-83
2022/07/17 05:56:23;;;;;;;7.40;3.05;;;;;;;;;;5012218;28;20120;-83
2022/07/17 05:58:49;;;;;;;5.22;2.40;;;;;;;;;;5011384;28;20049;-83
2022/07/17 06:01:15;;;;;;;6.85;2.40;;;;;;;;;;4977574;28;20052;-83
2022/07/17 06:03:41;;;;;;;5.55;2.60;;;;;;;;;;4994200;28;20046;-83
2022/07/17 06:06:07;;;;;;;5.53;2.70;;;;;;;;;;4994062;28;20467;-83
2022/07/17 06:08:33;;;;;;;8.93;3.00;;;;;;;;;;5011601;28;20438;-83
2022/07/17 06:10:59;;;;;;;9.13;2.50;;;;;;;;;;4993987;28;20109;-83
2022/07/17 06:13:25;;;;;;;4.90;2.17;;;;;;;;;;4993831;28;20046;-83
2022/07/17 06:15:51;;;;;;;6.30;2.42;;;;;;;;;;4994490;28;20076;-83
2022/07/17 06:18:17;;;;;;;5.25;2.30;;;;;;;;;;4994000;28;20108;-83
2022/07/17 06:20:43;;;;;;;3.63;2.28;;;;;;;;;;5011760;28;20465;-83
2022/07/17 06:23:09;;;;;;;5.38;2.20;;;;;;;;;;4994285;28;20057;-83
2022/07/17 06:25:35;;;;;;;5.40;2.40;;;;;;;;;;5012006;28;20132;-83
2022/07/17 06:28:01;;;;;;;5.43;2.33;;;;;;;;;;5010881;28;20125;-83
2022/07/17 06:30:27;;;;;;;6.15;2.40;;;;;;;;;;5011690;28;20199;-83
2022/07/17 06:32:53;;;;;;;4.90;2.60;;;;;;;;;;5012057;28;20057;-83
2022/07/17 06:35:19;;;;;;;5.28;2.47;;;;;;;;;;5011663;28;20081;-83
2022/07/17 06:37:45;;;;;;;9.98;2.55;;;;;;;;;;4994136;28;20046;-83
2022/07/17 06:40:11;;;;;;;8.52;2.75;;;;;;;;;;4977517;28;20050;-83
2022/07/17 06:42:37;;;;;;;7.20;2.60;;;;;;;;;;4993388;28;20120;-83
2022/07/17 06:45:03;;;;;;;5.78;2.70;;;;;;;;;;4992680;28;20133;-83
2022/07/17 06:47:29;;;;;;;5.40;2.78;;;;;;;;;;4993554;28;20058;-83
2022/07/17 06:49:55;;;;;;;6.10;2.70;;;;;;;;;;5010550;28;20050;-83
2022/07/17 06:52:21;;;;;;;7.10;2.90;;;;;;;;;;5011409;28;20056;-84
2022/07/17 06:54:47;;;;;;;4.53;2.60;;;;;;;;;;4993476;28;20132;-83
2022/07/17 06:57:13;;;;;;;4.38;2.70;;;;;;;;;;4992998;28;20129;-84
2022/07/17 06:59:40;;;;;;;6.45;2.60;;;;;;;;;;4993610;28;20072;-83
2022/07/17 07:02:06;;;;;;;6.13;3.03;;;;;;;;;;4993006;28;20088;-83
2022/07/17 07:04:32;;;;;;;4.90;2.53;;;;;;;;;;5010963;28;20116;-83
2022/07/17 07:06:58;;;;;;;4.80;2.65;;;;;;;;;;4992807;28;20443;-83
2022/07/17 07:09:25;;;;;;;7.18;2.53;;;;;;;;;;4992890;28;20038;-83
2022/07/17 07:11:51;;;;;;;7.30;2.78;;;;;;;;;;4993115;28;20109;-83
2022/07/17 07:14:17;;;;;;;4.65;2.40;;;;;;;;;;5010247;28;20049;-84
2022/07/17 07:16:43;;;;;;;3.97;2.40;;;;;;;;;;4992622;28;20058;-83
2022/07/17 07:19:09;;;;;;;6.32;2.58;;;;;;;;;;4992640;28;20050;-83
2022/07/17 07:21:35;;;;;;;4.85;2.55;;;;;;;;;;5010649;28;20046;-83
2022/07/17 07:24:01;;;;;;;5.60;2.60;;;;;;;;;;4992381;28;20058;-84
2022/07/17 07:26:27;;;;;;;4.35;2.20;;;;;;;;;;4992891;28;20072;-84
2022/07/17 07:28:53;;;;;;;5.18;2.25;;;;;;;;;;5010192;28;20089;-84
2022/07/17 07:31:20;;;;;;;6.00;2.55;;;;;;;;;;4992759;28;20050;-84
2022/07/17 07:33:46;;;;;;;6.78;2.40;;;;;;;;;;5010187;28;20441;-83
2022/07/17 07:36:12;;;;;;;7.15;2.72;;;;;;;;;;5010052;28;20046;-84
2022/07/17 07:38:38;;;;;;;5.43;2.38;;;;;;;;;;4992188;28;20052;-84
2022/07/17 07:41:05;;;;;;;6.40;2.30;;;;;;;;;;5010019;28;20081;-83
2022/07/17 07:43:31;;;;;;;6.30;2.25;;;;;;;;;;4992588;28;20081;-83
2022/07/17 07:45:57;;;;;;;8.60;2.63;;;;;;;;;;4992244;28;20058;-84
2022/07/17 07:48:23;;;;;;;7.78;2.30;;;;;;;;;;4992346;28;20053;-83
2022/07/17 07:50:50;;;;;;;6.28;2.22;;;;;;;;;;5010266;28;20046;-84
2022/07/17 07:53:16;;;;;;;5.70;2.17;;;;;;;;;;4992204;28;20080;-84
2022/07/17 07:55:42;;;;;;;4.80;2.13;;;;;;;;;;5011825;28;20046;-81
2022/07/17 07:58:12;;;;;;;5.15;2.30;;;;;;;;;;4996460;28;20053;-84
2022/07/17 08:00:39;;;;;;;4.88;2.20;;;;;;;;;;5014029;28;20132;-81
2022/07/17 08:03:06;;;;;;;3.58;1.88;;;;;;;;;;5013965;28;20121;-82
2022/07/17 08:05:32;;;;;;;5.05;2.17;;;;;;;;;;5013909;28;20503;-81
2022/07/17 08:07:58;;;;;;;4.53;2.10;;;;;;;;;;5012955;28;20399;-82
2022/07/17 08:10:24;;;;;;;6.05;2.28;;;;;;;;;;5013885;28;20059;-82
2022/07/17 08:12:57;;;;;;;4.85;2.10;;;;;;;;;;4996514;28;20415;-81
2022/07/17 08:15:23;;;;;;;4.72;2.15;;;;;;;;;;4996350;28;20092;-82
2022/07/17 08:17:51;;;;;;;6.00;2.05;;;;;;;;;;4996080;28;20442;-81
2022/07/17 08:20:17;;;;;;;7.07;2.40;;;;;;;;;;5013405;28;20400;-81
2022/07/17 08:22:44;;;;;;;5.90;2.35;;;;;;;;;;5013621;28;20045;-82
2022/07/17 08:25:10;;;;;;;5.20;2.40;;;;;;;;;;4995800;28;20616;-82
2022/07/17 08:27:37;;;;;;;5.50;2.40;;;;;;;;;;4995756;28;20125;-81
2022/07/17 08:30:05;;;;;;;5.93;2.45;;;;;;;;;;4995529;28;20057;-82
2022/07/17 08:32:31;;;;;;;7.00;2.60;;;;;;;;;;5013552;28;20640;-80
2022/07/17 08:34:57;;;;;;;7.88;3.63;;;;;;;;;;4995554;28;20557;-81
2022/07/17 08:37:24;;;;;;;5.88;2.40;;;;;;;;;;4995434;28;20084;-84
2022/07/17 08:39:50;;;;;;;5.57;2.55;;;;;;;;;;5013176;28;20061;-82
2022/07/17 08:42:16;;;;;;;5.68;2.53;;;;;;;;;;5013093;28;20041;-82
2022/07/17 08:44:45;;;;;;;8.13;2.83;;;;;;;;;;4995836;28;20121;-82
2022/07/17 08:47:12;;;;;;;6.25;2.22;;;;;;;;;;4995316;28;20144;-82
2022/07/17 08:49:40;;;;;;;33.00;10.85;;;;;;;;;;5013216;28;20176;-82
2022/07/17 08:52:06;;;;;;;10.10;3.83;;;;;;;;;;4995117;28;20112;-82
2022/07/17 08:54:33;;;;;;;3.53;2.05;;;;;;;;;;4995764;28;20053;-82
2022/07/17 08:57:09;;;;;;;4.57;2.28;;;;;;;;;;4995045;28;20057;-82
2022/07/17 08:59:55;;;;;;;10.18;3.33;;;;;;;;;;4996055;28;20523;-82
2022/07/17 09:02:22;;;;;;;4.63;2.15;;;;;;;;;;4978455;28;20305;-82
2022/07/17 09:04:57;;;;;;;12.40;4.03;;;;;;;;;;4995340;28;20042;-81
2022/07/17 09:07:23;;;;;;;8.63;3.80;;;;;;;;;;4978149;28;20054;-84
2022/07/17 09:09:51;;;;;;;6.97;2.38;;;;;;;;;;5013114;28;20045;-84
2022/07/17 09:12:26;;;;;;;6.38;2.85;;;;;;;;;;4979291;28;20046;-84
2022/07/17 09:14:53;;;;;;;4.90;2.10;;;;;;;;;;4995193;28;20045;-85
2022/07/17 09:17:26;;;;;;;7.30;2.42;;;;;;;;;;4978902;28;20574;-83
2022/07/17 09:22:25;;;;;;;6.55;2.15;;;;;;;;;;5000396;28;20455;-74
2022/07/17 09:24:56;;;;;;;4.75;2.17;;;;;;;;;;5001533;28;20027;-74
2022/07/17 09:27:25;;;;;;;5.03;2.10;;;;;;;;;;5001419;28;20031;-74
2022/07/17 09:29:52;;;;;;;5.32;2.22;;;;;;;;;;5001332;28;20027;-74
2022/07/17 09:32:19;;;;;;;2.67;1.95;;;;;;;;;;5001315;28;20057;-74
2022/07/17 09:34:46;;;;;;;5.18;2.00;;;;;;;;;;5001221;28;20045;-74
2022/07/17 09:37:12;;;;;;;3.22;2.17;;;;;;;;;;5001321;28;20078;-74
2022/07/17 09:39:41;;;;;;;3.13;2.20;;;;;;;;;;5001211;28;20090;-74
2022/07/17 09:42:07;;;;;;;3.92;2.17;;;;;;;;;;5001145;28;20086;-74
2022/07/17 09:44:33;;;;;;;3.63;2.10;;;;;;;;;;5000948;28;20043;-74
2022/07/17 09:47:01;;;;;;;3.20;2.00;;;;;;;;;;5001072;28;20034;-74
2022/07/17 09:49:28;;;;;;;2.85;1.90;;;;;;;;;;5000995;28;20029;-74
2022/07/17 09:51:55;;;;;;;3.13;2.10;;;;;;;;;;5001075;28;20027;-75
2022/07/17 09:54:22;;;;;;;3.92;1.88;;;;;;;;;;5000743;28;20035;-75
2022/07/17 09:56:50;;;;;;;4.28;2.10;;;;;;;;;;5000875;28;20046;-75
2022/07/17 09:59:17;;;;;;;5.32;2.05;;;;;;;;;;5000840;28;20027;-75
2022/07/17 10:01:44;;;;;;;4.20;2.20;;;;;;;;;;5000885;28;20022;-74
2022/07/17 10:04:11;;;;;;;4.00;2.28;;;;;;;;;;4984121;28;20061;-74
2022/07/17 10:06:37;;;;;;;4.10;2.08;;;;;;;;;;5000628;28;20030;-74
2022/07/17 10:09:05;;;;;;;2.55;1.95;;;;;;;;;;5000568;28;20043;-75
2022/07/17 10:11:32;;;;;;;2.58;1.90;;;;;;;;;;5000633;28;20078;-74
2022/07/17 10:14:03;;;;;;;3.70;2.22;;;;;;;;;;5000406;28;20054;-74
2022/07/17 10:16:33;;;;;;;3.63;2.08;;;;;;;;;;5000509;28;20070;-74
2022/07/17 10:19:02;;;;;;;4.43;2.20;;;;;;;;;;4982993;28;20055;-75
2022/07/17 10:21:28;;;;;;;4.72;2.20;;;;;;;;;;4980326;28;20035;-74
2022/07/17 10:23:54;;;;;;;3.35;1.80;;;;;;;;;;4980502;28;20059;-74
2022/07/17 10:26:33;;;;;;;3.83;2.20;;;;;;;;;;4980920;28;20038;-75
2022/07/17 10:29:00;;;;;;;5.10;2.20;;;;;;;;;;4980987;28;20067;-74
2022/07/17 10:31:27;;;;;;;3.90;2.13;;;;;;;;;;4980837;28;20082;-74
2022/07/17 10:34:00;;;;;;;3.78;2.20;;;;;;;;;;4980875;28;20036;-74
2022/07/17 10:36:33;;;;;;;5.32;2.10;;;;;;;;;;4980754;28;20038;-74
2022/07/17 10:39:10;;;;;;;4.65;2.33;;;;;;;;;;4980143;28;20045;-75
2022/07/17 10:41:36;;;;;;;3.97;2.17;;;;;;;;;;4980276;28;20063;-75
2022/07/17 10:44:02;;;;;;;4.47;2.30;;;;;;;;;;4980669;28;20058;-75
2022/07/17 10:46:28;;;;;;;2.90;2.20;;;;;;;;;;4980468;28;20055;-75
2022/07/17 10:48:56;;;;;;;4.18;2.20;;;;;;;;;;4980622;28;20030;-74
2022/07/17 10:51:26;;;;;;;3.40;2.28;;;;;;;;;;4979986;28;20059;-75
2022/07/17 10:53:56;;;;;;;3.28;2.17;;;;;;;;;;4980411;28;20055;-75
2022/07/17 10:56:22;;;;;;;4.25;2.20;;;;;;;;;;4980403;28;20023;-74
2022/07/17 10:58:48;;;;;;;3.65;2.08;;;;;;;;;;4980352;28;20035;-74
2022/07/17 11:01:14;;;;;;;3.72;2.30;;;;;;;;;;4980339;28;20034;-74
2022/07/17 11:03:51;;;;;;;4.45;2.30;;;;;;;;;;4980344;28;20027;-75
2022/07/17 11:06:21;;;;;;;3.88;2.20;;;;;;;;;;4980361;28;20069;-74
2022/07/17 11:08:48;;;;;;;3.42;2.20;;;;;;;;;;4980257;28;20107;-75
2022/07/17 11:11:15;;;;;;;3.63;2.15;;;;;;;;;;4980302;28;20027;-74
2022/07/17 11:13:41;;;;;;;3.40;2.30;;;;;;;;;;4980231;28;20055;-74
2022/07/17 11:16:07;;;;;;;3.80;2.13;;;;;;;;;;4979449;28;20067;-75
2022/07/17 11:18:37;;;;;;;4.38;2.30;;;;;;;;;;4979718;28;20039;-75
2022/07/17 11:21:04;;;;;;;3.05;2.17;;;;;;;;;;4988223;28;20046;-75
2022/07/17 11:23:32;;;;;;;5.05;2.50;;;;;;;;;;4999420;28;20030;-74
2022/07/17 11:26:01;;;;;;;4.72;2.50;;;;;;;;;;4966751;28;20034;-75
2022/07/17 11:28:38;;;;;;;4.78;2.70;;;;;;;;;;4999338;28;20033;-75
2022/07/17 11:31:06;;;;;;;3.72;2.45;;;;;;;;;;4999039;28;20038;-74
2022/07/17 11:33:32;;;;;;;3.85;2.30;;;;;;;;;;4999228;28;20061;-75
2022/07/17 11:35:59;;;;;;;3.83;2.42;;;;;;;;;;4999158;28;20026;-75
2022/07/17 11:38:29;;;;;;;4.75;2.60;;;;;;;;;;4999262;28;20038;-75
2022/07/17 11:40:55;;;;;;;5.03;2.67;;;;;;;;;;4999206;28;20047;-74
2022/07/17 11:43:21;;;;;;;3.05;2.35;;;;;;;;;;4982469;28;20094;-75
2022/07/17 11:45:47;;;;;;;4.10;2.70;;;;;;;;;;4982487;28;20057;-75
2022/07/17 11:48:14;;;;;;;4.03;2.72;;;;;;;;;;4999101;28;20050;-75
2022/07/17 11:50:40;;;;;;;4.40;2.40;;;;;;;;;;4999106;28;20049;-75
2022/07/17 11:53:06;;;;;;;3.45;2.40;;;;;;;;;;4999143;28;20062;-75
2022/07/17 11:55:39;;;;;;;4.43;2.95;;;;;;;;;;4982264;28;20038;-75
2022/07/17 11:58:05;;;;;;;3.65;2.58;;;;;;;;;;4998999;28;20023;-75
2022/07/17 12:00:32;;;;;;;5.43;2.67;;;;;;;;;;4999061;28;20026;-74
2022/07/17 12:03:05;;;;;;;3.95;2.70;;;;;;;;;;4999002;28;20023;-74
2022/07/17 12:05:32;;;;;;;4.30;2.40;;;;;;;;;;4998919;28;20090;-74
2022/07/17 12:07:58;;;;;;;5.13;2.65;;;;;;;;;;4998948;28;20073;-74
2022/07/17 12:10:26;;;;;;;3.60;2.47;;;;;;;;;;4982186;28;20066;-75
2022/07/17 12:12:52;;;;;;;3.28;2.70;;;;;;;;;;4999003;28;20033;-75
2022/07/17 12:15:18;;;;;;;3.22;2.22;;;;;;;;;;4982237;28;20042;-75
2022/07/17 12:17:44;;;;;;;5.20;2.60;;;;;;;;;;4982292;28;20041;-75
2022/07/17 12:20:10;;;;;;;4.20;2.60;;;;;;;;;;4981973;28;20031;-76
2022/07/17 12:22:50;;;;;;;5.18;2.78;;;;;;;;;;4998932;28;20057;-74
2022/07/17 12:25:23;;;;;;;3.58;2.58;;;;;;;;;;4982243;28;20062;-74
2022/07/17 12:27:49;;;;;;;3.80;2.63;;;;;;;;;;4998794;28;20038;-74
2022/07/17 12:30:15;;;;;;;5.88;2.83;;;;;;;;;;4998769;28;20061;-75
2022/07/17 12:32:41;;;;;;;5.50;2.50;;;;;;;;;;4981960;28;20041;-74
2022/07/17 12:35:07;;;;;;;5.47;2.75;;;;;;;;;;4998676;28;20094;-74
2022/07/17 12:37:33;;;;;;;4.05;2.55;;;;;;;;;;4998575;28;20027;-75
2022/07/17 12:39:59;;;;;;;3.75;2.50;;;;;;;;;;4998767;28;20072;-75
2022/07/17 12:42:25;;;;;;;3.95;2.58;;;;;;;;;;4983242;28;20055;-74
2022/07/17 12:44:51;;;;;;;5.05;3.05;;;;;;;;;;4985390;28;20043;-75
2022/07/17 12:47:17;;;;;;;4.75;2.60;;;;;;;;;;4985594;28;20034;-74
2022/07/17 12:49:43;;;;;;;5.57;2.85;;;;;;;;;;4969397;28;20090;-74
2022/07/17 12:52:09;;;;;;;3.60;2.70;;;;;;;;;;5001991;28;20114;-74
2022/07/17 12:54:35;;;;;;;3.53;2.50;;;;;;;;;;4985410;28;20041;-74
2022/07/17 12:57:01;;;;;;;5.93;2.65;;;;;;;;;;4985410;28;20035;-75
2022/07/17 12:59:27;;;;;;;3.85;2.50;;;;;;;;;;5001980;28;20031;-75
2022/07/17 13:01:54;;;;;;;4.55;2.60;;;;;;;;;;5001797;28;20041;-74
2022/07/17 13:04:23;;;;;;;4.18;2.17;;;;;;;;;;4985260;28;20059;-74
2022/07/17 13:06:49;;;;;;;3.85;2.40;;;;;;;;;;5001883;28;20027;-74
2022/07/17 13:09:15;;;;;;;5.75;2.60;;;;;;;;;;5001732;28;20045;-74
2022/07/17 13:11:42;;;;;;;4.45;2.60;;;;;;;;;;5001740;28;20102;-74
2022/07/17 13:14:11;;;;;;;5.75;2.80;;;;;;;;;;5001709;28;20033;-74
2022/07/17 13:16:38;;;;;;;3.45;2.70;;;;;;;;;;4985109;28;20030;-75
2022/07/17 13:19:04;;;;;;;4.15;2.83;;;;;;;;;;5001480;28;20043;-75
2022/07/17 13:21:30;;;;;;;5.45;2.72;;;;;;;;;;5001217;28;20058;-74
2022/07/17 13:23:57;;;;;;;5.18;3.03;;;;;;;;;;5001577;28;20047;-75
2022/07/17 13:26:23;;;;;;;6.20;3.03;;;;;;;;;;5001442;28;20035;-74
2022/07/17 13:28:49;;;;;;;4.55;2.88;;;;;;;;;;5001401;28;20081;-74
2022/07/17 13:31:15;;;;;;;4.43;3.08;;;;;;;;;;5001412;28;20027;-74
2022/07/17 13:33:41;;;;;;;6.10;3.33;;;;;;;;;;5001407;28;20054;-74
2022/07/17 13:36:07;;;;;;;4.95;2.90;;;;;;;;;;5001289;28;20091;-74
2022/07/17 13:38:33;;;;;;;5.30;3.03;;;;;;;;;;5001401;28;20026;-74
2022/07/17 13:40:59;;;;;;;5.32;3.03;;;;;;;;;;5001280;28;20042;-74
2022/07/17 13:43:25;;;;;;;5.40;2.60;;;;;;;;;;5001132;28;20026;-74
2022/07/17 13:45:51;;;;;;;4.82;3.30;;;;;;;;;;5001046;28;20023;-74
2022/07/17 13:48:18;;;;;;;5.10;3.00;;;;;;;;;;5001099;28;20022;-74
2022/07/17 13:50:44;;;;;;;5.10;2.92;;;;;;;;;;5001012;28;20058;-74
2022/07/17 13:53:11;;;;;;;5.00;2.85;;;;;;;;;;4984306;28;20039;-75
2022/07/17 13:55:38;;;;;;;7.63;6.90;;;;;;;;;;4984273;28;20030;-74
2022/07/17 13:58:04;;;;;;;4.05;2.90;;;;;;;;;;5000946;28;20026;-74
2022/07/17 14:00:30;;;;;;;5.03;3.10;;;;;;;;;;5000800;28;20031;-74
2022/07/17 14:02:56;;;;;;;5.28;2.80;;;;;;;;;;5000818;28;20045;-75
2022/07/17 14:05:22;;;;;;;5.25;3.40;;;;;;;;;;5000803;28;20027;-74
2022/07/17 14:07:48;;;;;;;4.10;3.20;;;;;;;;;;4984159;28;20027;-74
2022/07/17 14:10:14;;;;;;;4.80;3.38;;;;;;;;;;5000630;28;20023;-74
2022/07/17 14:12:40;;;;;;;4.18;3.22;;;;;;;;;;5000690;28;20051;-75
2022/07/17 14:15:07;;;;;;;4.82;3.22;;;;;;;;;;4983967;28;20041;-75
2022/07/17 14:17:33;;;;;;;4.18;3.30;;;;;;;;;;5000481;28;20027;-74
2022/07/17 14:19:59;;;;;;;6.95;2.95;;;;;;;;;;5000497;28;20035;-74
2022/07/17 14:22:25;;;;;;;3.53;2.85;;;;;;;;;;5000258;28;20043;-74
2022/07/17 14:24:52;;;;;;;3.85;3.03;;;;;;;;;;5000465;28;20034;-74
2022/07/17 14:27:18;;;;;;;5.03;3.05;;;;;;;;;;5000526;28;20042;-74
2022/07/17 14:29:44;;;;;;;4.35;3.15;;;;;;;;;;5000234;28;20033;-74
2022/07/17 14:32:13;;;;;;;4.82;2.97;;;;;;;;;;4983444;28;20055;-75
2022/07/17 14:34:39;;;;;;;4.25;3.00;;;;;;;;;;4983572;28;20049;-75
2022/07/17 14:37:07;;;;;;;4.70;3.28;;;;;;;;;;4983512;28;20038;-75
2022/07/17 14:39:33;;;;;;;4.70;3.15;;;;;;;;;;4967660;28;20039;-75
2022/07/17 14:41:59;;;;;;;5.93;3.15;;;;;;;;;;5000049;28;20037;-74